createdAt,value
2018-11-20T00:02:22.437Z,59.79
2018-11-20T00:05:20.056Z,59.82
2018-11-20T00:08:07.073Z,60.21
2018-11-20T00:10:54.198Z,59.98
2018-11-20T00:13:41.298Z,60.42
2018-11-20T00:16:28.462Z,59.91
2018-11-20T00:19:15.963Z,59.59
2018-11-20T00:22:03.107Z,59.80
2018-11-20T00:24:41.975Z,59.84
2018-11-20T00:27:29.083Z,59.50
2018-11-20T00:30:16.230Z,60.18
2018-11-20T00:32:52.718Z,59.78
2018-11-20T00:35:30.193Z,60.01
2018-11-20T00:38:17.345Z,59.90
2018-11-20T00:41:04.495Z,59.41
2018-11-20T00:43:51.582Z,59.63
2018-11-20T00:46:38.973Z,59.63
2018-11-20T00:49:26.099Z,59.37
2018-11-20T00:52:13.212Z,59.30
2018-11-20T00:55:00.305Z,59.78
2018-11-20T00:57:47.435Z,59.64
2018-11-20T01:00:53.439Z,60.19
2018-11-20T01:03:29.697Z,60.31
2018-11-20T01:06:16.815Z,60.11
2018-11-20T01:09:04.008Z,60.07
2018-11-20T01:11:51.201Z,59.85
2018-11-20T01:17:40.035Z,59.88
2018-11-20T01:20:27.138Z,60.27
2018-11-20T01:23:14.649Z,60.08
2018-11-20T01:26:20.683Z,60.22
2018-11-20T01:29:07.809Z,59.74
2018-11-20T01:32:04.320Z,60.14
2018-11-20T01:34:51.422Z,60.46
2018-11-20T01:37:57.507Z,59.99
2018-11-20T01:40:44.937Z,59.77
2018-11-20T01:43:32.179Z,59.94
2018-11-20T01:46:19.354Z,60.14
2018-11-20T01:49:06.715Z,60.31
2018-11-20T01:51:53.824Z,60.46
2018-11-20T01:54:30.712Z,60.65
2018-11-20T01:57:17.892Z,60.60
2018-11-20T02:00:04.969Z,61.08
2018-11-20T02:02:52.070Z,60.35
2018-11-20T02:05:39.169Z,60.63
2018-11-20T02:08:26.679Z,60.23
2018-11-20T02:11:32.723Z,60.36
2018-11-20T02:14:20.942Z,60.46
2018-11-20T02:17:12.244Z,60.26
2018-11-20T02:19:59.468Z,60.36
2018-11-20T02:22:46.978Z,60.39
2018-11-20T02:25:34.127Z,60.42
2018-11-20T02:28:40.172Z,60.05
2018-11-20T02:31:27.315Z,59.83
2018-11-20T02:34:14.471Z,60.44
2018-11-20T02:37:01.610Z,61.07
2018-11-20T02:39:48.688Z,60.31
2018-11-20T02:42:54.692Z,60.11
2018-11-20T02:45:41.801Z,60.57
2018-11-20T02:48:29.432Z,59.94
2018-11-20T02:51:16.837Z,60.44
2018-11-20T02:54:03.982Z,60.15
2018-11-20T02:57:10.055Z,60.44
2018-11-20T02:59:57.359Z,60.18
2018-11-20T03:02:44.465Z,60.79
2018-11-20T03:05:31.562Z,60.61
2018-11-20T03:08:18.680Z,60.84
2018-11-20T03:11:05.993Z,60.20
2018-11-20T03:14:11.982Z,60.45
2018-11-20T03:16:59.094Z,60.65
2018-11-20T03:19:46.490Z,60.73
2018-11-20T03:22:33.609Z,60.20
2018-11-20T03:25:39.617Z,60.68
2018-11-20T03:28:27.137Z,60.70
2018-11-20T03:31:04.295Z,60.39
2018-11-20T03:33:51.377Z,60.45
2018-11-20T03:36:38.584Z,60.38
2018-11-20T03:39:27.445Z,60.69
2018-11-20T03:42:14.916Z,60.38
2018-11-20T03:45:02.041Z,60.25
2018-11-20T03:47:49.565Z,60.61
2018-11-20T03:50:55.603Z,60.37
2018-11-20T03:53:42.738Z,61.03
2018-11-20T03:56:29.836Z,60.39
2018-11-20T03:59:24.904Z,60.74
2018-11-20T04:02:11.996Z,60.79
2018-11-20T04:04:59.107Z,60.21
2018-11-20T04:08:05.185Z,60.77
2018-11-20T04:10:52.252Z,61.09
2018-11-20T04:13:58.257Z,60.54
2018-11-20T04:16:45.368Z,60.69
2018-11-20T04:19:32.460Z,60.81
2018-11-20T04:22:20.174Z,60.89
2018-11-20T04:25:01.877Z,61.29
2018-11-20T04:27:49.345Z,61.24
2018-11-20T04:30:55.368Z,61.45
2018-11-20T04:34:01.358Z,61.38
2018-11-20T04:36:49.969Z,61.26
2018-11-20T04:39:37.100Z,61.25
2018-11-20T04:42:24.187Z,61.39
2018-11-20T04:45:30.219Z,61.38
2018-11-20T04:48:17.395Z,61.37
2018-11-20T04:50:54.422Z,61.76
2018-11-20T04:53:41.530Z,61.35
2018-11-20T04:56:28.636Z,61.34
2018-11-20T04:59:15.723Z,61.31
2018-11-20T05:02:21.782Z,61.58
2018-11-20T05:05:08.876Z,61.27
2018-11-20T05:07:56.207Z,61.51
2018-11-20T05:11:02.219Z,61.48
2018-11-20T05:13:49.320Z,61.61
2018-11-20T05:16:36.450Z,61.59
2018-11-20T05:19:23.617Z,61.40
2018-11-20T05:22:29.621Z,61.24
2018-11-20T05:25:17.058Z,61.27
2018-11-20T05:28:04.194Z,61.58
2018-11-20T05:30:51.400Z,61.97
2018-11-20T05:33:38.519Z,62.10
2018-11-20T05:36:26.097Z,61.77
2018-11-20T05:39:13.244Z,62.06
2018-11-20T05:42:19.245Z,62.23
2018-11-20T05:45:06.686Z,62.31
2018-11-20T05:47:53.823Z,62.20
2018-11-20T05:50:41.158Z,62.07
2018-11-20T05:53:25.651Z,62.28
2018-11-20T05:56:12.833Z,62.08
2018-11-20T05:59:18.827Z,62.20
2018-11-20T06:01:54.820Z,62.72
2018-11-20T06:04:41.873Z,62.51
2018-11-20T06:07:47.966Z,62.74
2018-11-20T06:10:53.944Z,62.15
2018-11-20T06:13:41.489Z,62.40
2018-11-20T06:16:28.545Z,62.34
2018-11-20T06:19:15.694Z,62.98
2018-11-20T06:22:03.090Z,62.42
2018-11-20T06:25:09.128Z,62.39
2018-11-20T06:28:15.145Z,62.30
2018-11-20T06:31:21.122Z,61.87
2018-11-20T06:34:27.259Z,62.24
2018-11-20T06:40:36.997Z,63.25
2018-11-20T06:43:24.055Z,62.58
2018-11-20T06:46:30.132Z,62.47
2018-11-20T06:49:17.283Z,62.73
2018-11-20T06:52:23.290Z,62.70
2018-11-20T06:55:10.421Z,63.18
2018-11-20T06:57:57.515Z,62.65
2018-11-20T07:00:44.617Z,63.00
2018-11-20T07:03:31.750Z,63.17
2018-11-20T07:06:37.735Z,62.70
2018-11-20T07:09:26.399Z,63.29
2018-11-20T07:12:13.991Z,63.87
2018-11-20T07:15:01.126Z,63.51
2018-11-20T07:17:48.192Z,62.62
2018-11-20T07:20:35.696Z,62.72
2018-11-20T07:23:22.816Z,62.28
2018-11-20T07:26:09.960Z,62.47
2018-11-20T07:28:57.086Z,62.61
2018-11-20T07:32:03.188Z,62.12
2018-11-20T07:35:09.192Z,62.60
2018-11-20T07:37:46.729Z,62.74
2018-11-20T07:40:52.734Z,62.11
2018-11-20T07:43:39.923Z,62.39
2018-11-20T07:46:26.965Z,61.90
2018-11-20T07:49:14.029Z,62.08
2018-11-20T07:52:01.170Z,61.94
2018-11-20T07:54:48.228Z,62.35
2018-11-20T07:57:35.501Z,62.08
2018-11-20T08:00:13.615Z,62.40
2018-11-20T08:03:00.771Z,61.64
2018-11-20T08:06:06.822Z,61.81
2018-11-20T08:08:53.893Z,61.81
2018-11-20T08:11:41.128Z,62.10
2018-11-20T08:14:28.230Z,61.46
2018-11-20T08:17:15.626Z,61.73
2018-11-20T08:20:02.713Z,61.45
2018-11-20T08:22:50.270Z,61.41
2018-11-20T08:25:49.979Z,61.19
2018-11-20T08:28:37.042Z,61.04
2018-11-20T08:31:24.355Z,60.09
2018-11-20T08:34:11.456Z,60.70
2018-11-20T08:37:17.477Z,60.05
2018-11-20T08:40:04.519Z,59.85
2018-11-20T08:42:51.626Z,59.73
2018-11-20T08:45:52.746Z,59.70
2018-11-20T08:48:39.880Z,59.06
2018-11-20T08:51:45.881Z,58.72
2018-11-20T08:54:32.989Z,58.72
2018-11-20T08:57:20.364Z,59.50
2018-11-20T08:59:58.077Z,58.95
2018-11-20T09:02:45.411Z,58.92
2018-11-20T09:05:32.366Z,58.83
2018-11-20T09:08:25.390Z,58.75
2018-11-20T09:11:11.502Z,58.48
2018-11-20T09:14:17.536Z,58.05
2018-11-20T09:17:04.670Z,58.52
2018-11-20T09:19:51.806Z,58.62
2018-11-20T09:22:57.821Z,58.95
2018-11-20T09:25:45.086Z,58.15
2018-11-20T09:28:32.596Z,58.22
2018-11-20T09:31:19.701Z,57.18
2018-11-20T09:34:25.790Z,57.00
2018-11-20T09:37:32.118Z,57.01
2018-11-20T09:40:31.707Z,56.69
2018-11-20T09:43:09.590Z,56.16
2018-11-20T09:46:04.124Z,55.68
2018-11-20T09:48:51.197Z,54.80
2018-11-20T09:51:38.319Z,54.25
2018-11-20T09:54:25.436Z,54.24
2018-11-20T09:57:12.938Z,55.12
2018-11-20T10:00:00.189Z,53.93
2018-11-20T10:02:47.203Z,54.00
2018-11-20T10:05:34.412Z,54.27
2018-11-20T10:08:21.601Z,53.67
2018-11-20T10:11:01.465Z,53.40
2018-11-20T10:13:46.830Z,52.84
2018-11-20T10:16:33.927Z,53.41
2018-11-20T10:19:21.305Z,53.62
2018-11-20T10:22:08.457Z,53.39
2018-11-20T10:24:55.728Z,52.76
2018-11-20T10:27:38.035Z,53.75
2018-11-20T10:30:44.060Z,53.58
2018-11-20T10:33:31.181Z,53.17
2018-11-20T10:36:05.669Z,53.45
2018-11-20T10:39:11.718Z,52.37
2018-11-20T10:42:17.711Z,53.33
2018-11-20T10:45:05.203Z,53.25
2018-11-20T10:48:11.225Z,52.55
2018-11-20T10:50:58.328Z,53.57
2018-11-20T10:53:45.584Z,54.24
2018-11-20T10:56:32.691Z,53.35
2018-11-20T10:59:20.453Z,53.85
2018-11-20T11:02:07.935Z,53.63
2018-11-20T11:04:55.204Z,53.84
2018-11-20T11:07:42.291Z,53.16
2018-11-20T11:10:29.315Z,53.25
2018-11-20T11:13:16.789Z,53.88
2018-11-20T11:16:04.018Z,53.37
2018-11-20T11:18:51.096Z,53.65
2018-11-20T11:21:38.181Z,53.50
2018-11-20T11:24:25.313Z,54.33
2018-11-20T11:27:14.346Z,53.68
2018-11-20T11:30:01.421Z,53.93
2018-11-20T11:32:48.884Z,54.14
2018-11-20T11:35:35.989Z,54.01
2018-11-20T11:38:23.497Z,54.43
2018-11-20T11:41:29.522Z,54.07
2018-11-20T11:44:16.627Z,53.78
2018-11-20T11:47:03.707Z,54.14
2018-11-20T11:49:50.846Z,53.92
2018-11-20T11:52:37.991Z,54.30
2018-11-20T11:55:25.259Z,54.41
2018-11-20T11:58:12.436Z,54.90
2018-11-20T12:00:59.766Z,54.85
2018-11-20T12:03:47.048Z,54.88
2018-11-20T12:06:34.303Z,54.59
2018-11-20T12:09:21.563Z,55.32
2018-11-20T12:12:00.228Z,55.33
2018-11-20T12:14:51.359Z,55.35
2018-11-20T12:17:34.543Z,55.69
2018-11-20T12:20:21.902Z,55.40
2018-11-20T12:23:08.992Z,55.63
2018-11-20T12:25:56.234Z,55.83
2018-11-20T12:28:35.354Z,56.17
2018-11-20T12:31:33.343Z,55.94
2018-11-20T12:34:20.499Z,56.29
2018-11-20T12:37:07.575Z,56.46
2018-11-20T12:39:43.679Z,56.00
2018-11-20T12:42:30.751Z,56.12
2018-11-20T12:45:18.239Z,56.22
2018-11-20T12:48:05.310Z,57.32
2018-11-20T12:50:52.490Z,56.57
2018-11-20T12:53:40.659Z,56.62
2018-11-20T12:56:26.851Z,57.14
2018-11-20T12:59:14.007Z,56.76
2018-11-20T13:02:00.372Z,56.71
2018-11-20T13:04:47.705Z,57.10
2018-11-20T13:07:35.475Z,56.99
2018-11-20T13:10:41.463Z,57.05
2018-11-20T13:13:28.702Z,56.85
2018-11-20T13:16:15.789Z,57.07
2018-11-20T13:19:02.940Z,57.36
2018-11-20T13:21:50.034Z,56.79
2018-11-20T13:24:37.108Z,56.75
2018-11-20T13:27:24.315Z,56.88
2018-11-20T13:30:30.308Z,57.07
2018-11-20T13:33:36.361Z,56.63
2018-11-20T13:36:23.669Z,56.69
2018-11-20T13:39:11.868Z,56.61
2018-11-20T13:41:58.666Z,56.72
2018-11-20T13:44:47.236Z,56.18
2018-11-20T13:47:34.348Z,56.09
2018-11-20T13:53:06.379Z,56.69
2018-11-20T13:55:53.466Z,56.96
2018-11-20T13:58:41.002Z,56.91
2018-11-20T14:01:28.125Z,56.94
2018-11-20T14:04:15.281Z,57.12
2018-11-20T14:07:02.329Z,57.26
2018-11-20T14:09:49.470Z,57.48
2018-11-20T14:12:36.633Z,57.30
2018-11-20T14:15:23.765Z,57.49
2018-11-20T14:18:11.202Z,57.46
2018-11-20T14:20:58.561Z,58.12
2018-11-20T14:23:45.877Z,57.90
2018-11-20T14:26:32.998Z,57.92
2018-11-20T14:29:35.409Z,58.15
2018-11-20T14:32:17.768Z,58.30
2018-11-20T14:35:04.990Z,58.29
2018-11-20T14:37:52.258Z,58.61
2018-11-20T14:40:39.405Z,58.84
2018-11-20T14:43:45.459Z,59.35
2018-11-20T14:46:51.491Z,59.08
2018-11-20T14:49:41.107Z,59.30
2018-11-20T14:52:25.855Z,59.18
2018-11-20T14:55:31.865Z,59.33
2018-11-20T14:58:18.962Z,59.29
2018-11-20T15:01:06.544Z,59.45
2018-11-20T15:03:53.630Z,59.77
2018-11-20T15:06:40.973Z,60.29
2018-11-20T15:09:47.021Z,59.82
2018-11-20T15:12:34.211Z,59.87
2018-11-20T15:15:40.288Z,60.16
2018-11-20T15:18:27.457Z,58.42
2018-11-20T15:21:33.455Z,57.37
2018-11-20T15:24:20.548Z,57.65
2018-11-20T15:27:26.598Z,57.01
2018-11-20T15:30:13.685Z,57.70
2018-11-20T15:33:00.788Z,57.38
2018-11-20T15:35:47.957Z,57.63
2018-11-20T15:38:35.106Z,57.86
2018-11-20T15:41:22.315Z,59.04
2018-11-20T15:44:09.469Z,59.37
2018-11-20T15:46:56.542Z,59.50
2018-11-20T15:50:02.519Z,59.89
2018-11-20T15:52:49.666Z,60.16
2018-11-20T15:55:36.907Z,60.78
2018-11-20T15:58:42.965Z,60.94
2018-11-20T16:01:30.166Z,61.09
2018-11-20T16:04:17.208Z,62.21
2018-11-20T16:07:04.383Z,61.96
2018-11-20T16:09:49.023Z,62.47
2018-11-20T16:12:55.023Z,62.89
2018-11-20T16:15:42.394Z,63.43
2018-11-20T16:18:29.550Z,63.65
2018-11-20T16:21:17.897Z,63.54
2018-11-20T16:24:03.970Z,64.01
2018-11-20T16:26:51.494Z,64.12
2018-11-20T16:29:29.300Z,64.66
2018-11-20T16:32:18.157Z,65.02
2018-11-20T16:35:05.445Z,65.17
2018-11-20T16:37:52.500Z,65.38
2018-11-20T16:40:39.585Z,65.59
2018-11-20T16:43:28.631Z,66.10
2018-11-20T16:46:13.998Z,66.20
2018-11-20T16:49:01.525Z,66.07
2018-11-20T16:51:48.613Z,66.13
2018-11-20T16:54:54.703Z,66.01
2018-11-20T16:57:44.345Z,66.09
2018-11-20T17:00:32.279Z,66.06
2018-11-20T17:03:19.105Z,66.43
2018-11-20T17:06:06.239Z,66.45
2018-11-20T17:09:12.767Z,67.28
2018-11-20T17:12:18.761Z,67.54
2018-11-20T17:15:06.017Z,68.98
2018-11-20T17:17:53.250Z,68.99
2018-11-20T17:20:33.584Z,69.08
2018-11-20T17:23:10.655Z,69.66
2018-11-20T17:25:57.764Z,69.01
2018-11-20T17:28:44.932Z,68.86
2018-11-20T17:31:55.403Z,69.09
2018-11-20T17:34:42.770Z,69.45
2018-11-20T17:37:29.893Z,69.86
2018-11-20T17:40:20.915Z,69.87
2018-11-20T17:43:04.310Z,69.96
2018-11-20T17:45:51.452Z,70.13
2018-11-20T17:48:38.959Z,70.40
2018-11-20T17:51:26.133Z,71.05
2018-11-20T17:54:32.114Z,71.05
2018-11-20T17:57:19.502Z,71.21
2018-11-20T18:00:06.573Z,71.48
2018-11-20T18:03:06.127Z,71.54
2018-11-20T18:06:12.112Z,71.24
2018-11-20T18:08:59.608Z,71.12
2018-11-20T18:11:47.142Z,71.28
2018-11-20T18:14:34.219Z,71.41
2018-11-20T18:17:40.284Z,71.36
2018-11-20T18:20:27.683Z,71.93
2018-11-20T18:23:14.985Z,72.56
2018-11-20T18:26:02.212Z,73.01
2018-11-20T18:29:08.341Z,73.07
2018-11-20T18:31:56.274Z,73.32
2018-11-20T18:34:44.474Z,73.48
2018-11-20T18:37:30.999Z,73.81
2018-11-20T18:40:37.215Z,73.92
2018-11-20T18:43:24.654Z,74.49
2018-11-20T18:46:05.448Z,74.72
2018-11-20T18:48:52.576Z,74.89
2018-11-20T18:51:39.693Z,75.22
2018-11-20T18:54:26.787Z,74.77
2018-11-20T18:57:32.799Z,75.36
2018-11-20T19:00:19.898Z,74.80
2018-11-20T19:03:07.415Z,75.84
2018-11-20T19:05:54.550Z,76.15
2018-11-20T19:08:41.745Z,75.12
2018-11-20T19:11:47.705Z,75.56
2018-11-20T19:14:34.859Z,75.66
2018-11-20T19:17:22.025Z,75.57
2018-11-20T19:20:28.065Z,75.65
2018-11-20T19:23:15.211Z,76.04
2018-11-20T19:26:02.543Z,75.83
2018-11-20T19:29:08.789Z,76.67
2018-11-20T19:31:55.975Z,76.94
2018-11-20T19:34:43.365Z,77.12
2018-11-20T19:37:30.774Z,77.54
2018-11-20T19:40:18.203Z,77.83
2018-11-20T19:43:24.218Z,78.59
2018-11-20T19:46:11.365Z,78.98
2018-11-20T19:48:58.799Z,78.51
2018-11-20T19:51:46.177Z,78.78
2018-11-20T19:54:34.216Z,79.30
2018-11-20T19:57:40.257Z,78.70
2018-11-20T20:00:46.259Z,78.99
2018-11-20T20:03:33.446Z,81.21
2018-11-20T20:06:20.638Z,81.11
2018-11-20T20:09:26.600Z,81.41
2018-11-20T20:12:32.630Z,84.27
2018-11-20T20:15:19.946Z,82.64
2018-11-20T20:18:26.035Z,83.09
2018-11-20T20:21:13.201Z,82.30
2018-11-20T20:24:00.479Z,83.26
2018-11-20T20:26:47.600Z,83.98
2018-11-20T20:29:53.673Z,83.70
2018-11-20T20:32:40.777Z,84.11
2018-11-20T20:35:27.895Z,84.00
2018-11-20T20:38:14.965Z,84.58
2018-11-20T20:41:02.201Z,83.84
2018-11-20T20:43:49.321Z,84.16
2018-11-20T20:46:36.534Z,83.84
2018-11-20T20:49:42.770Z,84.27
2018-11-20T20:52:29.945Z,83.67
2018-11-20T20:55:36.452Z,84.34
2018-11-20T20:58:23.275Z,84.71
2018-11-20T21:01:10.391Z,85.71
2018-11-20T21:03:59.378Z,85.39
2018-11-20T21:06:46.475Z,85.41
2018-11-20T21:09:33.703Z,85.48
2018-11-20T21:12:20.912Z,85.94
2018-11-20T21:15:08.071Z,85.73
2018-11-20T21:17:49.319Z,84.73
2018-11-20T21:20:37.172Z,85.26
2018-11-20T21:23:24.838Z,84.87
2018-11-20T21:26:12.270Z,85.48
2018-11-20T21:28:59.337Z,85.05
2018-11-20T21:31:46.848Z,86.58
2018-11-20T21:34:55.314Z,86.90
2018-11-20T21:37:40.595Z,88.45
2018-11-20T21:40:27.697Z,88.50
2018-11-20T21:43:25.795Z,88.91
2018-11-20T21:46:31.816Z,88.67
2018-11-20T21:49:38.121Z,87.69
2018-11-20T21:52:25.239Z,87.53
2018-11-20T21:55:13.830Z,87.68
2018-11-20T21:58:01.560Z,87.78
2018-11-20T22:00:51.128Z,88.67
2018-11-20T22:03:38.195Z,89.24
2018-11-20T22:06:25.365Z,89.37
2018-11-20T22:09:31.354Z,89.49
2018-11-20T22:12:18.486Z,89.13
2018-11-20T22:15:24.562Z,88.70
2018-11-20T22:18:12.471Z,88.97
2018-11-20T22:20:59.599Z,89.30
2018-11-20T22:23:46.954Z,89.67
2018-11-20T22:26:50.407Z,89.91
2018-11-20T22:29:56.461Z,91.01
2018-11-20T22:32:43.545Z,91.65
2018-11-20T22:35:30.742Z,91.77
2018-11-20T22:38:36.809Z,91.94
2018-11-20T22:41:42.870Z,91.15
2018-11-20T22:44:29.951Z,91.30
2018-11-20T22:47:17.561Z,91.37
2018-11-20T22:50:23.592Z,93.70
2018-11-20T22:53:11.052Z,95.89
2018-11-20T22:55:58.246Z,96.01
2018-11-20T22:58:46.138Z,95.45
2018-11-20T23:01:35.518Z,95.10
2018-11-20T23:04:22.736Z,95.45
2018-11-20T23:07:10.692Z,93.80
2018-11-20T23:09:58.354Z,93.24
2018-11-20T23:12:26.648Z,94.39
2018-11-20T23:15:14.936Z,94.32
2018-11-20T23:17:43.591Z,94.48
2018-11-20T23:20:12.988Z,94.86
2018-11-20T23:23:00.273Z,96.32
2018-11-20T23:25:28.666Z,96.94
2018-11-20T23:28:16.726Z,97.10
2018-11-20T23:31:04.354Z,97.74
2018-11-20T23:33:52.055Z,97.25
2018-11-20T23:36:20.425Z,96.63
2018-11-20T23:38:48.758Z,95.95
2018-11-20T23:41:17.378Z,95.18
2018-11-20T23:43:45.823Z,95.38
2018-11-20T23:46:14.604Z,95.54
2018-11-20T23:48:43.075Z,95.80
2018-11-20T23:51:11.760Z,95.28
2018-11-20T23:53:40.100Z,95.55
2018-11-20T23:56:09.909Z,95.07
2018-11-20T23:58:38.309Z,94.82
